^^
Saratoga-Weather Station Historical Data
Daily Summary for September 27, 2021 Units:  Metric    English   Both
Daily Weekly Monthly Yearly Custom
  High: Low: Average:
Temperature: 9.3 °C 3.8 °C 7 °C
Dew Point: 8.5 °C 3.4 °C 6.5 °C
Humidity: 98% 93% 96%
Wind Speed: 7.9km/h 0km/h 1.7km/h
Wind Gust: 16.1km/h - -
Wind- - SE
Pressure: 1003.4 hPa 998.0 hPa -
Precipitation: 6.3 mm    
Historical Graphs
 
 
Tabular Data for September 27, 2021
Time Temperature Dew Point Pressure Wind Wind Speed Wind Gust Humidity Rainfall Rate (Hourly) solar
00:04 4 °C 3.6 °C 1003.4 hPa Calm     97% 0.2 mm 0 W/m2
00:09 4 °C 3.6 °C 1003.4 hPa Calm     97% 0.2 mm 0 W/m2
00:14 3.9 °C 3.5 °C 1003.4 hPa Calm     97% 0.2 mm 0 W/m2
00:19 4 °C 3.6 °C 1003.4 hPa Calm     97% 0.2 mm 0 W/m2
00:24 3.9 °C 3.5 °C 1003.4 hPa Calm     97% 0.2 mm 0 W/m2
00:29 3.9 °C 3.5 °C 1003.4 hPa Calm     97% 0.2 mm 0 W/m2
00:34 3.9 °C 3.5 °C 1003.4 hPa Calm     97% 0.2 mm 0 W/m2
00:39 3.8 °C 3.4 °C 1003.4 hPa Calm     97% 0.2 mm 0 W/m2
00:44 3.8 °C 3.4 °C 1003.4 hPa Calm     97% 0.2 mm 0 W/m2
00:49 3.8 °C 3.4 °C 1003.4 hPa Calm     97% 0.0 mm 0 W/m2
00:54 3.8 °C 3.4 °C 1003.4 hPa Calm     97% 0.0 mm 0 W/m2
00:59 3.9 °C 3.5 °C 1003.4 hPa Calm     97% 0.0 mm 0 W/m2
01:04 3.9 °C 3.5 °C 1003.4 hPa Calm     97% 0.0 mm 0 W/m2
01:09 3.9 °C 3.5 °C 1003.0 hPa Calm     97% 0.0 mm 0 W/m2
01:15 3.9 °C 3.5 °C 1003.0 hPa Calm     97% 0.0 mm 0 W/m2
01:20 3.9 °C 3.5 °C 1003.0 hPa Calm     97% 0.0 mm 0 W/m2
01:25 3.9 °C 3.5 °C 1003.0 hPa Calm     97% 0.0 mm 0 W/m2
01:30 3.9 °C 3.5 °C 1003.0 hPa Calm     97% 0.0 mm 0 W/m2
01:35 4 °C 3.6 °C 1003.0 hPa Calm     97% 0.0 mm 0 W/m2
01:40 4.1 °C 3.7 °C 1003.0 hPa Calm     97% 0.0 mm 0 W/m2
01:45 4.1 °C 3.7 °C 1003.0 hPa Calm     97% 0.2 mm 0 W/m2
01:50 4.1 °C 3.7 °C 1003.0 hPa Calm     97% 0.2 mm 0 W/m2
01:55 4.1 °C 3.7 °C 1003.0 hPa Calm     97% 0.5 mm 0 W/m2
02:00 4.1 °C 3.7 °C 1003.0 hPa Calm     97% 0.5 mm 0 W/m2
02:05 4.2 °C 3.8 °C 1002.7 hPa East 3.2 km/h 3.2 km/h 97% 0.8 mm 0 W/m2
02:10 4.2 °C 3.8 °C 1002.7 hPa East 1.4 km/h 3.2 km/h 97% 1.0 mm 0 W/m2
02:15 4.2 °C 3.8 °C 1002.7 hPa East 1.4 km/h 1.6 km/h 97% 1.3 mm 0 W/m2
02:20 4.2 °C 3.8 °C 1002.7 hPa Calm   1.6 km/h 97% 1.5 mm 0 W/m2
02:25 4.3 °C 3.9 °C 1002.7 hPa Calm     97% 1.5 mm 0 W/m2
02:30 4.3 °C 3.9 °C 1002.7 hPa Calm   1.6 km/h 97% 1.5 mm 0 W/m2
02:35 4.3 °C 3.9 °C 1002.7 hPa East 1.4 km/h 1.6 km/h 97% 1.5 mm 0 W/m2
02:40 4.3 °C 3.9 °C 1002.7 hPa East 1.4 km/h 3.2 km/h 97% 1.5 mm 0 W/m2
02:45 4.3 °C 3.9 °C 1002.7 hPa Calm     97% 1.5 mm 0 W/m2
02:50 4.3 °C 3.9 °C 1002.7 hPa Calm   1.6 km/h 97% 1.5 mm 0 W/m2
02:55 4.3 °C 3.9 °C 1002.7 hPa Calm   1.6 km/h 97% 1.3 mm 0 W/m2
03:00 4.3 °C 3.9 °C 1002.7 hPa Calm     97% 1.0 mm 0 W/m2
03:05 4.3 °C 3.9 °C 1002.7 hPa Calm     97% 0.8 mm 0 W/m2
03:10 4.3 °C 3.9 °C 1002.7 hPa Calm     97% 0.5 mm 0 W/m2
03:15 4.3 °C 3.9 °C 1002.7 hPa Calm     97% 0.5 mm 0 W/m2
03:20 4.3 °C 3.9 °C 1002.4 hPa Calm     97% 0.0 mm 0 W/m2
03:25 4.3 °C 3.9 °C 1002.4 hPa Calm     97% 0.0 mm 0 W/m2
03:30 4.3 °C 3.9 °C 1002.4 hPa Calm     97% 0.0 mm 0 W/m2
03:35 4.3 °C 3.9 °C 1002.4 hPa Calm     97% 0.2 mm 0 W/m2
03:40 4.3 °C 3.9 °C 1002.4 hPa Calm     97% 0.2 mm 0 W/m2
03:45 4.3 °C 3.9 °C 1002.4 hPa Calm     97% 0.2 mm 0 W/m2
03:50 4.3 °C 3.9 °C 1002.0 hPa Calm     97% 0.2 mm 0 W/m2
03:55 4.4 °C 4 °C 1002.4 hPa Calm     97% 0.2 mm 0 W/m2
04:00 4.4 °C 4 °C 1002.0 hPa Calm     97% 0.2 mm 0 W/m2
04:05 4.5 °C 4.1 °C 1002.0 hPa Calm     97% 0.5 mm 0 W/m2
04:10 4.5 °C 4.1 °C 1002.0 hPa Calm     97% 0.5 mm 0 W/m2
04:15 4.6 °C 4.2 °C 1002.0 hPa Calm     97% 0.8 mm 0 W/m2
04:20 4.6 °C 4.2 °C 1002.0 hPa Calm     97% 0.8 mm 0 W/m2
04:25 4.6 °C 4.2 °C 1002.0 hPa Calm     97% 1.0 mm 0 W/m2
04:30 4.6 °C 4.2 °C 1002.0 hPa Calm     97% 1.3 mm 0 W/m2
04:35 4.6 °C 4.2 °C 1002.0 hPa Calm     97% 1.5 mm 0 W/m2
04:40 4.6 °C 4.2 °C 1002.0 hPa Calm     97% 1.5 mm 0 W/m2
04:45 4.7 °C 4.4 °C 1001.7 hPa Calm     98% 1.5 mm 0 W/m2
04:50 4.7 °C 4.4 °C 1002.0 hPa East 1.4 km/h 3.2 km/h 98% 1.5 mm 0 W/m2
04:55 4.7 °C 4.4 °C 1001.7 hPa Calm   1.6 km/h 98% 1.5 mm 0 W/m2
05:00 4.8 °C 4.4 °C 1001.7 hPa Calm   1.6 km/h 97% 1.5 mm 0 W/m2
05:05 4.8 °C 4.5 °C 1001.7 hPa Calm     98% 1.5 mm 0 W/m2
05:10 4.8 °C 4.4 °C 1001.7 hPa Calm     97% 1.3 mm 0 W/m2
05:15 4.8 °C 4.4 °C 1001.7 hPa Calm     97% 1.0 mm 0 W/m2
05:20 4.9 °C 4.5 °C 1001.7 hPa Calm     97% 1.0 mm 0 W/m2
05:25 4.9 °C 4.6 °C 1001.7 hPa East 1.4 km/h 3.2 km/h 98% 1.0 mm 0 W/m2
05:30 5.1 °C 4.8 °C 1001.4 hPa Calm     98% 1.0 mm 0 W/m2
05:35 5.1 °C 4.7 °C 1001.4 hPa Calm     97% 1.3 mm 0 W/m2
05:40 5.2 °C 4.8 °C 1001.4 hPa Calm     97% 1.5 mm 0 W/m2
05:45 5.2 °C 4.8 °C 1001.4 hPa Calm     97% 1.5 mm 0 W/m2
05:50 5.2 °C 4.8 °C 1001.4 hPa Calm     97% 1.8 mm 0 W/m2
05:55 5.2 °C 4.8 °C 1001.4 hPa Calm     97% 1.8 mm 0 W/m2
06:01 5.2 °C 4.8 °C 1001.4 hPa Calm     97% 2.0 mm 0 W/m2
06:06 5.2 °C 4.8 °C 1001.4 hPa Calm     97% 2.0 mm 0 W/m2
06:11 5.3 °C 5 °C 1001.0 hPa Calm     98% 2.0 mm 0 W/m2
06:16 5.3 °C 5 °C 1001.0 hPa Calm     98% 2.0 mm 0 W/m2
06:21 5.4 °C 5.1 °C 1001.0 hPa Calm     98% 2.0 mm 0 W/m2
06:26 5.5 °C 5.2 °C 1001.0 hPa Calm     98% 1.8 mm 0 W/m2
06:31 5.5 °C 5.2 °C 1001.0 hPa Calm     98% 1.5 mm 0 W/m2
06:36 5.5 °C 5.2 °C 1001.0 hPa Calm     98% 1.0 mm 0 W/m2
06:41 5.5 °C 5.2 °C 1000.7 hPa Calm     98% 0.8 mm 0 W/m2
06:46 5.6 °C 5.3 °C 1001.0 hPa Calm     98% 0.5 mm 0 W/m2
06:51 5.6 °C 5.3 °C 1000.7 hPa Calm     98% 0.5 mm 0 W/m2
06:56 5.7 °C 5.4 °C 1000.7 hPa Calm     98% 0.2 mm 0 W/m2
07:01 5.7 °C 5.4 °C 1001.0 hPa Calm     98% 0.0 mm 0 W/m2
07:06 5.7 °C 5.4 °C 1001.0 hPa Calm     98% 0.0 mm 0 W/m2
07:11 5.7 °C 5.4 °C 1001.0 hPa Calm     98% 0.0 mm 0 W/m2
07:16 5.8 °C 5.5 °C 1001.0 hPa Calm     98% 0.0 mm 0 W/m2
07:21 5.9 °C 5.6 °C 1001.0 hPa Calm     98% 0.0 mm 0 W/m2
07:26 6.2 °C 5.9 °C 1001.0 hPa East 4.7 km/h 4.8 km/h 98% 0.0 mm 0 W/m2
07:31 6.6 °C 6.3 °C 1001.0 hPa ESE 3.2 km/h 6.4 km/h 98% 0.0 mm 0 W/m2
07:36 7 °C 6.7 °C 1000.7 hPa East 4.7 km/h 4.8 km/h 98% 0.0 mm 0 W/m2
07:41 7.1 °C 6.8 °C 1000.7 hPa East 4.7 km/h 6.4 km/h 98% 0.0 mm 0 W/m2
07:46 7.2 °C 6.9 °C 1000.7 hPa ENE 4.7 km/h 8 km/h 98% 0.0 mm 0 W/m2
07:51 7.3 °C 7 °C 1000.7 hPa East 4.7 km/h 6.4 km/h 98% 0.0 mm 0 W/m2
07:56 7.3 °C 7 °C 1000.7 hPa East 3.2 km/h 8 km/h 98% 0.0 mm 0 W/m2
08:01 7.3 °C 7 °C 1000.7 hPa ENE 4.7 km/h 6.4 km/h 98% 0.0 mm 0 W/m2
08:06 7.3 °C 7 °C 1000.7 hPa NE 4.7 km/h 6.4 km/h 98% 0.0 mm 0 W/m2
08:11 7.4 °C 7.1 °C 1000.7 hPa ENE 1.4 km/h 3.2 km/h 98% 0.0 mm 0 W/m2
08:16 7.4 °C 7.1 °C 1000.7 hPa NE 3.2 km/h 3.2 km/h 98% 0.0 mm 0 W/m2
08:21 7.3 °C 7 °C 1000.7 hPa East 1.4 km/h 3.2 km/h 98% 0.0 mm 0 W/m2
08:26 7.3 °C 7 °C 1000.7 hPa Calm   3.2 km/h 98% 0.0 mm 0 W/m2
08:31 7.3 °C 7 °C 1000.7 hPa Calm     98% 0.0 mm 0 W/m2
08:36 7.3 °C 7 °C 1000.7 hPa Calm     98% 0.0 mm 0 W/m2
08:41 7.3 °C 7 °C 1000.7 hPa ENE 1.4 km/h 3.2 km/h 98% 0.0 mm 5 W/m2
08:46 7.3 °C 7 °C 1000.3 hPa Calm   3.2 km/h 98% 0.0 mm 5 W/m2
08:51 7.3 °C 7 °C 1000.3 hPa Calm     98% 0.2 mm 7 W/m2
08:56 7.3 °C 7 °C 1000.3 hPa Calm     98% 0.2 mm 9 W/m2
09:01 7.3 °C 7 °C 1000.3 hPa East 3.2 km/h 4.8 km/h 98% 0.2 mm 9 W/m2
09:06 7.3 °C 7 °C 1000.3 hPa ENE 1.4 km/h 4.8 km/h 98% 0.2 mm 16 W/m2
09:11 7.4 °C 7.1 °C 1000.3 hPa ENE 1.4 km/h 4.8 km/h 98% 0.2 mm 25 W/m2
09:16 7.4 °C 7.1 °C 1000.3 hPa East 4.7 km/h 6.4 km/h 98% 0.2 mm 14 W/m2
09:21 7.4 °C 7.1 °C 1000.0 hPa NE 1.4 km/h 1.6 km/h 98% 0.2 mm 16 W/m2
09:26 7.5 °C 7.2 °C 1000.0 hPa ENE 1.4 km/h 4.8 km/h 98% 0.2 mm 33 W/m2
09:31 7.6 °C 7.3 °C 1000.0 hPa East 3.2 km/h 4.8 km/h 98% 0.2 mm 86 W/m2
09:36 7.6 °C 7.3 °C 1000.0 hPa East 4.7 km/h 6.4 km/h 98% 0.2 mm 46 W/m2
09:41 7.7 °C 7.4 °C 1000.0 hPa NE 1.4 km/h 4.8 km/h 98% 0.2 mm 35 W/m2
09:46 7.6 °C 7.3 °C 1000.0 hPa NE 1.4 km/h 3.2 km/h 98% 0.2 mm 40 W/m2
09:51 7.7 °C 7.4 °C 1000.0 hPa Calm   3.2 km/h 98% 0.0 mm 33 W/m2
09:56 7.7 °C 7.4 °C 1000.0 hPa Calm   4.8 km/h 98% 0.0 mm 32 W/m2
10:01 7.7 °C 7.4 °C 1000.0 hPa Calm   4.8 km/h 98% 0.0 mm 40 W/m2
10:06 7.7 °C 7.4 °C 1000.0 hPa ENE 1.4 km/h 3.2 km/h 98% 0.0 mm 44 W/m2
10:11 7.7 °C 7.4 °C 1000.0 hPa Calm   3.2 km/h 98% 0.0 mm 54 W/m2
10:16 7.7 °C 7.4 °C 1000.0 hPa ENE 3.2 km/h 3.2 km/h 98% 0.0 mm 53 W/m2
10:21 7.7 °C 7.4 °C 999.7 hPa Calm   3.2 km/h 98% 0.0 mm 44 W/m2
10:26 7.7 °C 7.4 °C 999.7 hPa ENE 1.4 km/h 3.2 km/h 98% 0.0 mm 47 W/m2
10:31 7.7 °C 7.4 °C 999.7 hPa East 3.2 km/h 3.2 km/h 98% 0.0 mm 49 W/m2
10:36 7.7 °C 7.4 °C 1000.0 hPa ESE 3.2 km/h 6.4 km/h 98% 0.0 mm 39 W/m2
10:41 7.7 °C 7.4 °C 1000.0 hPa East 3.2 km/h 4.8 km/h 98% 0.0 mm 39 W/m2
10:46 7.7 °C 7.4 °C 1000.0 hPa ESE 1.4 km/h 4.8 km/h 98% 0.0 mm 44 W/m2
10:51 7.7 °C 7.4 °C 999.7 hPa ESE 4.7 km/h 4.8 km/h 98% 0.0 mm 65 W/m2
10:56 7.6 °C 7.3 °C 999.7 hPa Calm   4.8 km/h 98% 0.0 mm 49 W/m2
11:01 7.6 °C 7.3 °C 999.7 hPa East 3.2 km/h 3.2 km/h 98% 0.0 mm 42 W/m2
11:06 7.6 °C 7.3 °C 999.7 hPa ESE 3.2 km/h 6.4 km/h 98% 0.0 mm 40 W/m2
11:11 7.7 °C 7.4 °C 999.7 hPa Calm   1.6 km/h 98% 0.0 mm 30 W/m2
11:16 7.7 °C 7.4 °C 999.7 hPa Calm   6.4 km/h 98% 0.0 mm 26 W/m2
11:21 7.7 °C 7.4 °C 999.7 hPa NE 3.2 km/h 4.8 km/h 98% 0.0 mm 33 W/m2
11:26 7.7 °C 7.4 °C 999.7 hPa East 4.7 km/h 9.7 km/h 98% 0.0 mm 42 W/m2
11:31 7.6 °C 7.3 °C 999.7 hPa ENE 6.4 km/h 8 km/h 98% 0.0 mm 47 W/m2
11:36 7.6 °C 7.3 °C 999.7 hPa East 6.4 km/h 9.7 km/h 98% 0.0 mm 63 W/m2
11:41 7.6 °C 7.3 °C 999.7 hPa NE 3.2 km/h 16.1 km/h 98% 0.0 mm 83 W/m2
11:46 7.6 °C 7.3 °C 999.3 hPa ESE 4.7 km/h 6.4 km/h 98% 0.0 mm 90 W/m2
11:51 7.7 °C 7.4 °C 999.3 hPa ENE 3.2 km/h 6.4 km/h 98% 0.0 mm 93 W/m2
11:56 7.7 °C 7.3 °C 999.3 hPa ESE 3.2 km/h 12.9 km/h 97% 0.0 mm 84 W/m2
12:01 7.8 °C 7.4 °C 999.7 hPa ESE 3.2 km/h 3.2 km/h 97% 0.0 mm 83 W/m2
12:06 7.8 °C 7.4 °C 999.3 hPa East 4.7 km/h 12.9 km/h 97% 0.0 mm 69 W/m2
12:11 7.8 °C 7.5 °C 999.3 hPa SE 4.7 km/h 4.8 km/h 98% 0.0 mm 72 W/m2
12:16 7.8 °C 7.4 °C 999.3 hPa East 1.4 km/h 3.2 km/h 97% 0.0 mm 72 W/m2
12:21 7.8 °C 7.4 °C 999.3 hPa East 4.7 km/h 6.4 km/h 97% 0.0 mm 77 W/m2
12:26 7.8 °C 7.4 °C 999.3 hPa East 3.2 km/h 4.8 km/h 97% 0.0 mm 84 W/m2
12:31 7.9 °C 7.5 °C 999.3 hPa East 3.2 km/h 4.8 km/h 97% 0.0 mm 88 W/m2
12:36 7.9 °C 7.5 °C 999.3 hPa East 3.2 km/h 6.4 km/h 97% 0.0 mm 84 W/m2
12:41 7.9 °C 7.5 °C 999.3 hPa ENE 4.7 km/h 6.4 km/h 97% 0.0 mm 77 W/m2
12:47 7.9 °C 7.5 °C 999.3 hPa ENE 1.4 km/h 3.2 km/h 97% 0.0 mm 72 W/m2
12:52 8 °C 7.6 °C 999.0 hPa ESE 4.7 km/h 6.4 km/h 97% 0.0 mm 63 W/m2
12:57 8.1 °C 7.7 °C 999.0 hPa East 1.4 km/h 9.7 km/h 97% 0.0 mm 63 W/m2
14:36 8.3 °C 7.7 °C 998.0 hPa Calm   1.6 km/h 96% 0.0 mm 79 W/m2
14:41 8.4 °C 7.8 °C 998.3 hPa Calm     96% 0.0 mm 72 W/m2
14:46 8.4 °C 7.8 °C 998.3 hPa Calm     96% 0.0 mm 51 W/m2
14:51 8.4 °C 7.8 °C 998.3 hPa ENE 3.2 km/h 3.2 km/h 96% 0.0 mm 49 W/m2
14:56 8.4 °C 7.8 °C 998.3 hPa East 3.2 km/h 6.4 km/h 96% 0.0 mm 44 W/m2
15:01 8.4 °C 7.8 °C 998.3 hPa ESE 6.4 km/h 11.3 km/h 96% 0.0 mm 42 W/m2
15:06 8.4 °C 7.8 °C 998.0 hPa ENE 3.2 km/h 6.4 km/h 96% 0.0 mm 37 W/m2
15:11 8.4 °C 7.8 °C 998.0 hPa ENE 4.7 km/h 11.3 km/h 96% 0.0 mm 37 W/m2
15:16 8.4 °C 7.8 °C 998.0 hPa Calm   8 km/h 96% 0.0 mm 32 W/m2
15:21 8.4 °C 7.6 °C 998.0 hPa East 4.7 km/h 9.7 km/h 95% 0.0 mm 35 W/m2
15:26 8.4 °C 7.6 °C 998.0 hPa East 6.4 km/h 16.1 km/h 95% 0.0 mm 30 W/m2
15:31 8.4 °C 7.6 °C 998.0 hPa Calm   3.2 km/h 95% 0.2 mm 26 W/m2
15:36 8.4 °C 7.6 °C 998.0 hPa ENE 7.9 km/h 16.1 km/h 95% 0.2 mm 28 W/m2
15:41 8.4 °C 7.6 °C 998.0 hPa ESE 4.7 km/h 11.3 km/h 95% 0.2 mm 26 W/m2
15:46 8.4 °C 7.6 °C 998.3 hPa ENE 3.2 km/h 12.9 km/h 95% 0.2 mm 21 W/m2
15:51 8.4 °C 7.6 °C 998.3 hPa ENE 3.2 km/h 4.8 km/h 95% 0.2 mm 16 W/m2
15:56 8.4 °C 7.5 °C 998.3 hPa East 3.2 km/h 6.4 km/h 94% 0.2 mm 16 W/m2
16:01 8.3 °C 7.5 °C 998.0 hPa ENE 6.4 km/h 6.4 km/h 95% 0.2 mm 16 W/m2
16:06 8.3 °C 7.5 °C 998.3 hPa ENE 1.4 km/h 6.4 km/h 95% 0.2 mm 9 W/m2
16:11 8.3 °C 7.5 °C 998.0 hPa ENE 3.2 km/h 6.4 km/h 95% 0.2 mm 9 W/m2
16:16 8.3 °C 7.5 °C 998.0 hPa ESE 1.4 km/h 6.4 km/h 95% 0.2 mm 11 W/m2
16:21 8.3 °C 7.5 °C 998.0 hPa Calm   6.4 km/h 95% 0.2 mm 9 W/m2
16:26 8.3 °C 7.5 °C 998.0 hPa ENE 4.7 km/h 4.8 km/h 95% 0.2 mm 5 W/m2
16:31 8.2 °C 7.3 °C 998.0 hPa East 1.4 km/h 6.4 km/h 94% 0.0 mm 0 W/m2
16:36 8.1 °C 7.2 °C 998.3 hPa ENE 4.7 km/h 6.4 km/h 94% 0.0 mm 0 W/m2
16:41 8.1 °C 7.3 °C 998.3 hPa ESE 4.7 km/h 9.7 km/h 95% 0.0 mm 0 W/m2
16:46 8 °C 7.2 °C 998.3 hPa East 1.4 km/h 3.2 km/h 95% 0.0 mm 0 W/m2
16:51 7.9 °C 7.1 °C 998.3 hPa East 6.4 km/h 6.4 km/h 95% 0.2 mm 0 W/m2
16:56 7.8 °C 7 °C 998.3 hPa ESE 1.4 km/h 3.2 km/h 95% 0.2 mm 0 W/m2
17:01 7.8 °C 7 °C 998.3 hPa ENE 3.2 km/h 4.8 km/h 95% 0.2 mm 0 W/m2
17:06 7.8 °C 7 °C 998.3 hPa ENE 4.7 km/h 8 km/h 95% 0.5 mm 0 W/m2
17:11 7.7 °C 6.9 °C 998.3 hPa Calm   3.2 km/h 95% 0.5 mm 0 W/m2
17:16 7.7 °C 6.9 °C 998.3 hPa ENE 1.4 km/h 8 km/h 95% 0.5 mm 0 W/m2
17:21 7.7 °C 6.9 °C 998.6 hPa Calm   3.2 km/h 95% 0.5 mm 0 W/m2
17:26 7.7 °C 7.1 °C 998.6 hPa Calm     96% 0.5 mm 0 W/m2
17:31 7.6 °C 7 °C 998.6 hPa ENE 1.4 km/h 4.8 km/h 96% 0.5 mm 0 W/m2
17:36 7.6 °C 7 °C 998.6 hPa ENE 1.4 km/h 4.8 km/h 96% 0.5 mm 0 W/m2
17:41 7.6 °C 7 °C 998.6 hPa East 3.2 km/h 4.8 km/h 96% 0.5 mm 0 W/m2
17:46 7.6 °C 7 °C 998.6 hPa ENE 3.2 km/h 4.8 km/h 96% 0.5 mm 0 W/m2
17:51 7.6 °C 7 °C 998.6 hPa ESE 1.4 km/h 3.2 km/h 96% 0.2 mm 0 W/m2
17:56 7.6 °C 7 °C 998.3 hPa ENE 4.7 km/h 8 km/h 96% 0.2 mm 0 W/m2
18:01 7.6 °C 7 °C 998.3 hPa NNE 3.2 km/h 4.8 km/h 96% 0.5 mm 0 W/m2
18:06 7.7 °C 7.1 °C 998.3 hPa ENE 3.2 km/h 8 km/h 96% 0.2 mm 0 W/m2
18:12 7.7 °C 7.1 °C 998.6 hPa NNE 1.4 km/h 1.6 km/h 96% 0.2 mm 0 W/m2
18:17 7.7 °C 7.1 °C 998.6 hPa NW 3.2 km/h 3.2 km/h 96% 0.2 mm 0 W/m2
18:22 7.8 °C 7.2 °C 998.6 hPa NW 4.7 km/h 4.8 km/h 96% 0.2 mm 0 W/m2
18:27 7.8 °C 7.2 °C 998.6 hPa WSW 4.7 km/h 8 km/h 96% 0.2 mm 0 W/m2
18:32 7.9 °C 7.3 °C 998.6 hPa West 1.4 km/h 6.4 km/h 96% 0.2 mm 0 W/m2
18:37 7.9 °C 7.3 °C 998.6 hPa West 1.4 km/h 8 km/h 96% 0.2 mm 0 W/m2
18:42 8 °C 7.4 °C 998.6 hPa WNW 1.4 km/h 4.8 km/h 96% 0.2 mm 0 W/m2
18:47 8 °C 7.4 °C 998.6 hPa Calm   1.6 km/h 96% 0.2 mm 0 W/m2
18:52 8.1 °C 7.5 °C 998.6 hPa North 3.2 km/h 6.4 km/h 96% 0.2 mm 0 W/m2
18:57 8.1 °C 7.5 °C 998.6 hPa WSW 1.4 km/h 4.8 km/h 96% 0.0 mm 0 W/m2
19:02 8.2 °C 7.6 °C 998.6 hPa NNW 1.4 km/h 4.8 km/h 96% 0.0 mm 0 W/m2
19:07 8.2 °C 7.6 °C 998.6 hPa Calm   4.8 km/h 96% 0.0 mm 0 W/m2
19:12 8.2 °C 7.6 °C 999.0 hPa West 3.2 km/h 4.8 km/h 96% 0.0 mm 0 W/m2
19:17 8.2 °C 7.6 °C 999.0 hPa SW 1.4 km/h 4.8 km/h 96% 0.0 mm 0 W/m2
19:22 8.3 °C 7.7 °C 999.3 hPa WNW 4.7 km/h 6.4 km/h 96% 0.0 mm 0 W/m2
19:27 8.3 °C 7.7 °C 999.3 hPa NW 1.4 km/h 4.8 km/h 96% 0.0 mm 0 W/m2
19:32 8.4 °C 7.8 °C 999.3 hPa NW 4.7 km/h 12.9 km/h 96% 0.0 mm 0 W/m2
19:37 8.5 °C 7.9 °C 999.3 hPa West 1.4 km/h 6.4 km/h 96% 0.0 mm 0 W/m2
19:42 8.6 °C 8 °C 999.3 hPa NNW 1.4 km/h 12.9 km/h 96% 0.0 mm 0 W/m2
19:47 8.6 °C 8 °C 999.7 hPa WNW 3.2 km/h 9.7 km/h 96% 0.0 mm 0 W/m2
19:52 8.7 °C 8.1 °C 999.3 hPa WNW 1.4 km/h 4.8 km/h 96% 0.0 mm 0 W/m2
19:57 8.7 °C 8.1 °C 999.3 hPa NW 3.2 km/h 9.7 km/h 96% 0.0 mm 0 W/m2
20:02 8.7 °C 8.1 °C 999.3 hPa NNW 1.4 km/h 4.8 km/h 96% 0.0 mm 0 W/m2
20:07 8.8 °C 8.2 °C 999.7 hPa WNW 1.4 km/h 3.2 km/h 96% 0.0 mm 0 W/m2
20:12 8.8 °C 8.2 °C 999.3 hPa WSW 1.4 km/h 1.6 km/h 96% 0.0 mm 0 W/m2
20:17 8.8 °C 8.2 °C 999.7 hPa West 1.4 km/h 9.7 km/h 96% 0.0 mm 0 W/m2
20:22 8.9 °C 8.3 °C 999.7 hPa SW 1.4 km/h 4.8 km/h 96% 0.0 mm 0 W/m2
20:27 8.9 °C 8.1 °C 999.3 hPa North 3.2 km/h 4.8 km/h 95% 0.0 mm 0 W/m2
20:32 9 °C 8.2 °C 999.3 hPa Calm   6.4 km/h 95% 0.0 mm 0 W/m2
20:37 9.1 °C 8.3 °C 999.3 hPa Calm   6.4 km/h 95% 0.0 mm 0 W/m2
20:42 9.1 °C 8.3 °C 999.3 hPa North 1.4 km/h 3.2 km/h 95% 0.0 mm 0 W/m2
20:47 9.2 °C 8.4 °C 999.3 hPa WNW 3.2 km/h 12.9 km/h 95% 0.0 mm 0 W/m2
20:52 9.2 °C 8.4 °C 999.3 hPa Calm   3.2 km/h 95% 0.0 mm 0 W/m2
20:57 9.2 °C 8.4 °C 999.3 hPa North 4.7 km/h 8 km/h 95% 0.0 mm 0 W/m2
21:02 9.2 °C 8.4 °C 999.3 hPa North 1.4 km/h 4.8 km/h 95% 0.0 mm 0 W/m2
21:07 9.2 °C 8.4 °C 999.7 hPa NNE 3.2 km/h 9.7 km/h 95% 0.0 mm 0 W/m2
21:12 9.2 °C 8.4 °C 999.7 hPa NW 3.2 km/h 4.8 km/h 95% 0.0 mm 0 W/m2
21:17 9.3 °C 8.5 °C 999.7 hPa ENE 6.4 km/h 11.3 km/h 95% 0.0 mm 0 W/m2
21:22 9.3 °C 8.5 °C 999.7 hPa NW 3.2 km/h 6.4 km/h 95% 0.0 mm 0 W/m2
21:27 9.3 °C 8.5 °C 999.3 hPa SSW 3.2 km/h 4.8 km/h 95% 0.0 mm 0 W/m2
21:32 9.3 °C 8.4 °C 999.3 hPa Calm   4.8 km/h 94% 0.0 mm 0 W/m2
21:37 9.3 °C 8.4 °C 999.3 hPa Calm   3.2 km/h 94% 0.0 mm 0 W/m2
21:42 9.3 °C 8.4 °C 999.7 hPa North 4.7 km/h 6.4 km/h 94% 0.0 mm 0 W/m2
21:47 9.3 °C 8.4 °C 999.7 hPa Calm   4.8 km/h 94% 0.0 mm 0 W/m2
21:52 9.3 °C 8.4 °C 999.3 hPa Calm   3.2 km/h 94% 0.0 mm 0 W/m2
21:57 9.2 °C 8.3 °C 999.3 hPa NNE 1.4 km/h 4.8 km/h 94% 0.0 mm 0 W/m2
22:02 9.2 °C 8.3 °C 999.3 hPa NNW 1.4 km/h 4.8 km/h 94% 0.0 mm 0 W/m2
22:07 9.1 °C 8.2 °C 999.0 hPa Calm   4.8 km/h 94% 0.0 mm 0 W/m2
22:12 9.1 °C 8.2 °C 999.3 hPa NW 1.4 km/h 4.8 km/h 94% 0.0 mm 0 W/m2
22:17 9 °C 8.1 °C 999.3 hPa Calm   8 km/h 94% 0.0 mm 0 W/m2
22:22 8.9 °C 8 °C 999.3 hPa Calm   8 km/h 94% 0.0 mm 0 W/m2
22:27 8.9 °C 8 °C 999.3 hPa NNW 6.4 km/h 6.4 km/h 94% 0.0 mm 0 W/m2
22:32 8.9 °C 8 °C 999.3 hPa NNE 3.2 km/h 8 km/h 94% 0.0 mm 0 W/m2
22:37 8.9 °C 8 °C 999.3 hPa NW 7.9 km/h 12.9 km/h 94% 0.0 mm 0 W/m2
22:42 8.9 °C 8 °C 999.3 hPa NW 3.2 km/h 4.8 km/h 94% 0.0 mm 0 W/m2
22:47 8.9 °C 8 °C 999.3 hPa NW 3.2 km/h 11.3 km/h 94% 0.0 mm 0 W/m2
22:52 8.9 °C 8 °C 999.3 hPa North 1.4 km/h 8 km/h 94% 0.0 mm 0 W/m2
22:57 9 °C 8.1 °C 999.0 hPa NNW 3.2 km/h 11.3 km/h 94% 0.0 mm 0 W/m2
23:02 9.1 °C 8.2 °C 999.0 hPa NW 3.2 km/h 12.9 km/h 94% 0.0 mm 0 W/m2
23:07 9.2 °C 8.3 °C 999.0 hPa Calm   9.7 km/h 94% 0.0 mm 0 W/m2
23:12 9.2 °C 8.1 °C 999.3 hPa Calm   12.9 km/h 93% 0.0 mm 0 W/m2
23:17 9.2 °C 8.1 °C 999.0 hPa WNW 1.4 km/h 3.2 km/h 93% 0.0 mm 0 W/m2
23:22 9.2 °C 8.1 °C 999.0 hPa WNW 3.2 km/h 11.3 km/h 93% 0.0 mm 0 W/m2
23:27 9.2 °C 8.1 °C 999.0 hPa West 3.2 km/h 6.4 km/h 93% 0.0 mm 0 W/m2
23:32 9.2 °C 8.1 °C 999.0 hPa NNW 4.7 km/h 8 km/h 93% 0.0 mm 0 W/m2
23:37 9.2 °C 8.1 °C 998.6 hPa Calm   12.9 km/h 93% 0.0 mm 0 W/m2
23:42 9.2 °C 8.1 °C 998.6 hPa SW 1.4 km/h 12.9 km/h 93% 0.0 mm 0 W/m2
23:47 9.2 °C 8.1 °C 998.6 hPa NNE 1.4 km/h 4.8 km/h 93% 0.0 mm 0 W/m2
23:52 9.2 °C 8.1 °C 998.6 hPa WNW 7.9 km/h 12.9 km/h 93% 0.0 mm 0 W/m2
23:57 9.2 °C 8.1 °C 998.6 hPa Calm   6.4 km/h 93% 0.0 mm 0 W/m2
Juneau County Weather
Compliments of Weather Underground - 2 mb